Terminal Aerodrome Forecast
Issued by NWS

Home | Current Version | Previous Version | Text Only | Print | Product List | Glossary On
Versions: 1 2 3 4 5 6 7 8 9 10 11 12 13 14 15 16 17 18 19
000
FTUS45 KGGW 110531
TAFOLF
TAF
KOLF 110531Z 1106/1206 06006KT 3SM -SHSN SCT014 OVC035
     FM111900 25005KT P6SM BKN025 BKN035
     FM120000 35004KT 6SM -SHSN OVC025=

USA.gov is the U.S. government's official web portal to all federal, state and local government web resources and services.